Cardenden, United Kingdom
Current Conditions -  °F | °C
As of 8:50 AM on Saturday 29 Nov 2014 (Local Time) from EGPH Reporting Station
Haze Haze  
Wind Chill: 45°   Ceiling: 800
Heat Index: 48°   Visibility: 3mi
Dew Point: 46°   Wind: 7mph
Humidity: 93%   Direction: 70°ENE
Pressure: 29.85"   Gusts: NA
Location:  56.14°N, 3.26°W
Report Text: EGPH 290850Z 07006KT 5000 HZ BKN008 OVC012 09/08 Q1011
Loading
Personal Weather Stations






























Interactive Weather Map New forecast layout! Learn more

10-Day Weather Forecast

Advertisements
Track Severe Weather on mobile